ADDS METAR Data INFO
IDs: Format: Raw Decoded Include TAF

Data at: 0409 UTC 11 Dec 2017

KHEQ 110350Z AUTO 30016G21KT 10SM CLR 09/M15 A3025 RMK AO2
KHEQ 110330Z AUTO 30011G17KT 10SM CLR 05/M13 A3025 RMK AO2
KHEQ 110310Z AUTO 27009KT 10SM CLR 00/M15 A3025 RMK AO2
KHEQ 110250Z AUTO 27010KT 10SM CLR 01/M14 A3025 RMK AO2
KHEQ 110230Z AUTO 27009KT 10SM CLR 00/M15 A3025 RMK AO2
KHEQ 110210Z AUTO 25008KT 10SM CLR 01/M16 A3025 RMK AO2
KHEQ 110150Z AUTO 27008KT 10SM CLR 01/M16 A3025 RMK AO2
KHEQ 110130Z AUTO 27008KT 10SM CLR 01/M15 A3025 RMK AO2
KHEQ 110110Z AUTO 26007KT 10SM CLR 02/M15 A3025 RMK AO2
KHEQ 110050Z AUTO 27007KT 10SM CLR 03/M15 A3025 RMK AO2
KHEQ 110030Z AUTO 26008KT 10SM CLR 05/M15 A3025 RMK AO2
KHEQ 110010Z AUTO 27008KT 10SM CLR 05/M16 A3026 RMK AO2
KHEQ 102350Z AUTO 26006KT 10SM CLR 07/M17 A3026 RMK AO2
KHEQ 102330Z AUTO 28005KT 10SM CLR 11/M16 A3026 RMK AO2
KHEQ 102310Z AUTO 30005KT 10SM CLR 15/M16 A3027 RMK AO2
KHEQ 102255Z AUTO 31005KT 10SM CLR 15/M17 A3027 RMK AO2
KHEQ 102235Z AUTO 31007KT 10SM CLR 16/M17 A3027 RMK AO2
KHEQ 102215Z AUTO 30010G15KT 10SM CLR 17/M17 A3027 RMK AO2
KHEQ 102150Z AUTO 30010G14KT 10SM CLR 17/M17 A3027 RMK AO2
KHEQ 102130Z AUTO 29008KT 10SM CLR 18/M17 A3027 RMK AO2
KHEQ 102110Z AUTO 29011G17KT 10SM CLR 18/M17 A3027 RMK AO2
KHEQ 102050Z AUTO 28010G15KT 10SM CLR 18/M16 A3028 RMK AO2
KHEQ 102030Z AUTO 30011G16KT 10SM CLR 18/M16 A3029 RMK AO2
KHEQ 102010Z AUTO 31011G18KT 10SM CLR 18/M16 A3029 RMK AO2
KHEQ 101950Z AUTO 30013G19KT 10SM CLR 17/M16 A3030 RMK AO2
KHEQ 101930Z AUTO 31013G16KT 10SM CLR 17/M16 A3031 RMK AO2
KHEQ 101910Z AUTO 31013G18KT 10SM CLR 17/M15 A3032 RMK AO2
KHEQ 101850Z AUTO 31015G20KT 10SM CLR 17/M15 A3033 RMK AO2
KHEQ 101830Z AUTO 32015G22KT 10SM CLR 16/M15 A3034 RMK AO2
KHEQ 101810Z AUTO 32016G21KT 10SM CLR 16/M15 A3034 RMK AO2
KHEQ 101750Z AUTO 31012G23KT 10SM CLR 15/M15 A3034 RMK AO2
KHEQ 101730Z AUTO 31013G19KT 10SM CLR 15/M14 A3035 RMK AO2
KHEQ 101710Z AUTO 32013G20KT 10SM CLR 13/M15 A3035 RMK AO2
KHEQ 101650Z AUTO 32015G22KT 10SM CLR 13/M15 A3035 RMK AO2
KHEQ 101630Z AUTO 31012G19KT 10SM CLR 12/M15 A3035 RMK AO2
KHEQ 101610Z AUTO 31011KT 10SM CLR 12/M13 A3034 RMK AO2
KHEQ 101550Z AUTO 29012G15KT 10SM CLR 08/M13 A3034 RMK AO2
KHEQ 101530Z AUTO 29008KT 10SM CLR 06/M13 A3034 RMK AO2
KHEQ 101510Z AUTO 30008KT 10SM CLR 05/M13 A3034 RMK AO2
KHEQ 101450Z AUTO 28010KT 10SM CLR 03/M12 A3034 RMK AO2
KHEQ 101430Z AUTO 28010KT 10SM CLR 03/M13 A3034 RMK AO2
KHEQ 101410Z AUTO 29011KT 10SM CLR 03/M13 A3033 RMK AO2
KHEQ 101355Z AUTO 28012KT 10SM CLR 03/M13 A3032 RMK AO2
KHEQ 101335Z AUTO 28012KT 10SM CLR 02/M13 A3032 RMK AO2
KHEQ 101310Z AUTO 27012KT 10SM CLR 01/M13 A3032 RMK AO2
KHEQ 101250Z AUTO 27011KT 10SM CLR 01/M13 A3032 RMK AO2
KHEQ 101230Z AUTO 28010KT 10SM CLR 01/M13 A3031 RMK AO2
KHEQ 101210Z AUTO 28012KT 10SM CLR 03/M13 A3030 RMK AO2
KHEQ 101150Z AUTO 29010KT 10SM CLR 03/M13 A3031 RMK AO2
KHEQ 101130Z AUTO 28009KT 10SM CLR 01/M13 A3031 RMK AO2
KHEQ 101110Z AUTO 26009KT 10SM CLR 01/M14 A3031 RMK AO2
KHEQ 101050Z AUTO 28011KT 10SM CLR 03/M15 A3030 RMK AO2
KHEQ 101030Z AUTO 29010KT 10SM CLR 03/M13 A3031 RMK AO2
KHEQ 101010Z AUTO 29011G16KT 10SM CLR 03/M14 A3030 RMK AO2
KHEQ 100950Z AUTO 29009KT 10SM CLR 05/M13 A3031 RMK AO2
KHEQ 100930Z AUTO 29012KT 10SM CLR 05/M13 A3030 RMK AO2
KHEQ 100910Z AUTO 30013G17KT 10SM CLR 04/M13 A3030 RMK AO2
KHEQ 100850Z AUTO 28010KT 10SM CLR 02/M13 A3030 RMK AO2
KHEQ 100830Z AUTO 28011KT 10SM CLR 02/M13 A3030 RMK AO2
KHEQ 100810Z AUTO 28012KT 10SM CLR 02/M13 A3030 RMK AO2
KHEQ 100750Z AUTO 28013KT 10SM CLR 03/M13 A3030 RMK AO2
KHEQ 100730Z AUTO 29011KT 10SM CLR 03/M13 A3030 RMK AO2
KHEQ 100710Z AUTO 28012KT 10SM CLR 03/M13 A3030 RMK AO2
KHEQ 100650Z AUTO 29012KT 10SM CLR 03/M13 A3030 RMK AO2
KHEQ 100630Z AUTO 29012KT 10SM CLR 03/M12 A3030 RMK AO2
KHEQ 100610Z AUTO 28010KT 10SM CLR 02/M12 A3031 RMK AO2
KHEQ 100550Z AUTO 29010KT 10SM CLR 05/M12 A3032 RMK AO2
KHEQ 100530Z AUTO 29011G15KT 10SM CLR 05/M12 A3031 RMK AO2
KHEQ 100510Z AUTO 30013G18KT 10SM CLR 05/M12 A3030 RMK AO2
KHEQ 100455Z AUTO 30013G19KT 10SM CLR 06/M12 A3030 RMK AO2
KHEQ 100435Z AUTO 30013G18KT 10SM CLR 05/M12 A3029 RMK AO2
KHEQ 100415Z AUTO 29012KT 10SM CLR 05/M12 A3029 RMK AO2
KHEQ 100355Z AUTO 29011KT 10SM CLR 05/M12 A3029 RMK AO2
KHEQ 100335Z AUTO 29012KT 10SM CLR 06/M12 A3028 RMK AO2
KHEQ 100315Z AUTO 29013G17KT 10SM CLR 05/M13 A3028 RMK AO2
KHEQ 100250Z AUTO 29011G20KT 10SM CLR 07/M13 A3028 RMK AO2
KHEQ 100230Z AUTO 29013KT 10SM CLR 06/M13 A3028 RMK AO2
KHEQ 100210Z AUTO 29012KT 10SM CLR 07/M13 A3028 RMK AO2
KHEQ 100150Z AUTO 29012G17KT 10SM CLR 07/M13 A3028 RMK AO2
KHEQ 100130Z AUTO 29010KT 10SM CLR 06/M14 A3028 RMK AO2
KHEQ 100110Z AUTO 30010KT 10SM CLR 06/M14 A3027 RMK AO2
KHEQ 100050Z AUTO 29009KT 10SM CLR 04/M15 A3027 RMK AO2
KHEQ 100030Z AUTO 26007KT 10SM CLR 08/M15 A3027 RMK AO2
KHEQ 100010Z AUTO 29007KT 10SM CLR 08/M15 A3025 RMK AO2
KHEQ 092350Z AUTO 30007KT 10SM CLR 12/M14 A3025 RMK AO2
KHEQ 092330Z AUTO 31008G14KT 10SM CLR 12/M15 A3025 RMK AO2
KHEQ 092310Z AUTO 32011KT 10SM CLR 12/M16 A3024 RMK AO2
KHEQ 092250Z AUTO 32011G16KT 10SM CLR 15/M14 A3024 RMK AO2
KHEQ 092230Z AUTO 32013G17KT 10SM CLR 15/M15 A3024 RMK AO2
KHEQ 092210Z AUTO 32014G22KT 10SM CLR 16/M15 A3024 RMK AO2
KHEQ 092150Z AUTO 32017G22KT 10SM CLR 16/M14 A3024 RMK AO2
KHEQ 092130Z AUTO 32014G20KT 10SM CLR 16/M14 A3023 RMK AO2
KHEQ 092110Z AUTO 33015G21KT 10SM CLR 16/M14 A3024 RMK AO2
KHEQ 092050Z AUTO 34021G25KT 10SM CLR 16/M13 A3023 RMK AO2
KHEQ 092030Z AUTO 34020G31KT 10SM CLR 16/M14 A3023 RMK AO2
KHEQ 092010Z AUTO 33025G30KT 10SM CLR 16/M13 A3023 RMK AO2
KHEQ 091950Z AUTO 33023G31KT 10SM CLR 16/M13 A3023 RMK AO2
KHEQ 091930Z AUTO 34025G32KT 10SM CLR 15/M13 A3023 RMK AO2
KHEQ 091910Z AUTO 35022G29KT 10SM CLR 15/M13 A3024 RMK AO2
KHEQ 091855Z AUTO 35022G27KT 10SM CLR 15/M13 A3025 RMK AO2
KHEQ 091835Z AUTO 34018G29KT 10SM CLR 15/M13 A3026 RMK AO2
KHEQ 091815Z AUTO 33017G22KT 10SM CLR 15/M11 A3027 RMK AO2
KHEQ 091750Z AUTO 33016G21KT 10SM CLR 13/M11 A3027 RMK AO2
KHEQ 091730Z AUTO 34018G25KT 10SM CLR 12/M12 A3028 RMK AO2
KHEQ 091710Z AUTO 33019G24KT 10SM CLR 12/M12 A3028 RMK AO2
KHEQ 091650Z AUTO 33014G20KT 10SM CLR 12/M11 A3028 RMK AO2
KHEQ 091630Z AUTO 33009KT 10SM CLR 10/M10 A3028 RMK AO2
KHEQ 091610Z AUTO 32009KT 10SM CLR 08/M10 A3027 RMK AO2